sensor_id;sensor_type;location;lat;lon;timestamp;temperature;humidity
66375;DHT22;53173;52.176;5.314;2023-05-13T00:00:04;15.70;85.40
66375;DHT22;53173;52.176;5.314;2023-05-13T00:02:31;15.70;85.20
66375;DHT22;53173;52.176;5.314;2023-05-13T00:04:59;15.60;85.00
66375;DHT22;53173;52.176;5.314;2023-05-13T00:07:25;15.70;84.90
66375;DHT22;53173;52.176;5.314;2023-05-13T00:09:52;15.70;84.90
66375;DHT22;53173;52.176;5.314;2023-05-13T00:12:19;15.60;85.00
66375;DHT22;53173;52.176;5.314;2023-05-13T00:14:46;15.70;85.20
66375;DHT22;53173;52.176;5.314;2023-05-13T00:17:13;15.50;85.30
66375;DHT22;53173;52.176;5.314;2023-05-13T00:19:40;15.50;85.20
66375;DHT22;53173;52.176;5.314;2023-05-13T00:22:07;15.60;85.30
66375;DHT22;53173;52.176;5.314;2023-05-13T00:24:59;15.50;85.40
66375;DHT22;53173;52.176;5.314;2023-05-13T00:27:26;15.40;84.80
66375;DHT22;53173;52.176;5.314;2023-05-13T00:29:53;15.30;85.00
66375;DHT22;53173;52.176;5.314;2023-05-13T00:32:20;15.90;84.90
66375;DHT22;53173;52.176;5.314;2023-05-13T00:34:47;15.40;84.20
66375;DHT22;53173;52.176;5.314;2023-05-13T00:37:13;15.40;84.10
66375;DHT22;53173;52.176;5.314;2023-05-13T00:39:40;15.40;83.80
66375;DHT22;53173;52.176;5.314;2023-05-13T00:42:08;15.30;83.60
66375;DHT22;53173;52.176;5.314;2023-05-13T00:44:42;15.40;83.30
66375;DHT22;53173;52.176;5.314;2023-05-13T00:47:10;15.50;83.40
66375;DHT22;53173;52.176;5.314;2023-05-13T00:49:37;15.30;84.10
66375;DHT22;53173;52.176;5.314;2023-05-13T00:52:05;15.40;82.80
66375;DHT22;53173;52.176;5.314;2023-05-13T00:54:57;15.30;82.50
66375;DHT22;53173;52.176;5.314;2023-05-13T00:57:24;15.30;82.10
66375;DHT22;53173;52.176;5.314;2023-05-13T00:59:51;15.30;82.10
66375;DHT22;53173;52.176;5.314;2023-05-13T01:02:24;16.00;82.40
66375;DHT22;53173;52.176;5.314;2023-05-13T01:08:14;15.10;81.50
66375;DHT22;53173;52.176;5.314;2023-05-13T01:13:21;14.80;81.60
66375;DHT22;53173;52.176;5.314;2023-05-13T01:16:17;14.70;82.90
66375;DHT22;53173;52.176;5.314;2023-05-13T01:18:50;14.70;82.10
66375;DHT22;53173;52.176;5.314;2023-05-13T01:21:28;14.70;82.30
66375;DHT22;53173;52.176;5.314;2023-05-13T01:23:55;14.50;82.30
66375;DHT22;53173;52.176;5.314;2023-05-13T01:26:22;15.20;83.20
66375;DHT22;53173;52.176;5.314;2023-05-13T01:28:50;14.50;83.10
66375;DHT22;53173;52.176;5.314;2023-05-13T01:31:18;14.50;83.10
66375;DHT22;53173;52.176;5.314;2023-05-13T01:33:45;14.40;83.10
66375;DHT22;53173;52.176;5.314;2023-05-13T01:36:14;15.60;83.80
66375;DHT22;53173;52.176;5.314;2023-05-13T01:38:42;14.50;83.10
66375;DHT22;53173;52.176;5.314;2023-05-13T01:41:09;15.30;83.60
66375;DHT22;53173;52.176;5.314;2023-05-13T01:43:37;14.50;83.40
66375;DHT22;53173;52.176;5.314;2023-05-13T01:46:10;14.40;83.50
66375;DHT22;53173;52.176;5.314;2023-05-13T01:48:38;14.80;83.40
66375;DHT22;53173;52.176;5.314;2023-05-13T01:51:05;14.30;83.20
66375;DHT22;53173;52.176;5.314;2023-05-13T01:53:32;14.40;83.40
66375;DHT22;53173;52.176;5.314;2023-05-13T01:56:08;14.60;84.80
66375;DHT22;53173;52.176;5.314;2023-05-13T01:58:35;14.90;84.10
66375;DHT22;53173;52.176;5.314;2023-05-13T02:01:02;14.50;83.90
66375;DHT22;53173;52.176;5.314;2023-05-13T02:03:29;14.20;83.70
66375;DHT22;53173;52.176;5.314;2023-05-13T02:09:30;14.10;83.70
66375;DHT22;53173;52.176;5.314;2023-05-13T02:11:57;14.60;84.00
66375;DHT22;53173;52.176;5.314;2023-05-13T02:14:30;14.20;83.90
66375;DHT22;53173;52.176;5.314;2023-05-13T02:16:57;14.50;83.90
66375;DHT22;53173;52.176;5.314;2023-05-13T02:19:24;13.90;83.60
66375;DHT22;53173;52.176;5.314;2023-05-13T02:21:51;13.80;83.60
66375;DHT22;53173;52.176;5.314;2023-05-13T02:24:18;13.70;84.10
66375;DHT22;53173;52.176;5.314;2023-05-13T02:26:44;14.20;84.70
66375;DHT22;53173;52.176;5.314;2023-05-13T02:29:12;13.70;84.60
66375;DHT22;53173;52.176;5.314;2023-05-13T02:31:40;13.70;84.50
66375;DHT22;53173;52.176;5.314;2023-05-13T02:34:09;13.70;84.50
66375;DHT22;53173;52.176;5.314;2023-05-13T02:36:36;14.10;85.00
66375;DHT22;53173;52.176;5.314;2023-05-13T02:39:04;13.50;85.00
66375;DHT22;53173;52.176;5.314;2023-05-13T02:41:31;13.70;85.50
66375;DHT22;53173;52.176;5.314;2023-05-13T02:43:58;13.40;85.50
66375;DHT22;53173;52.176;5.314;2023-05-13T02:46:25;14.10;85.80
66375;DHT22;53173;52.176;5.314;2023-05-13T02:48:53;13.40;85.40
66375;DHT22;53173;52.176;5.314;2023-05-13T02:51:20;13.30;86.50
66375;DHT22;53173;52.176;5.314;2023-05-13T02:53:47;13.30;85.80
66375;DHT22;53173;52.176;5.314;2023-05-13T02:56:14;13.30;86.10
66375;DHT22;53173;52.176;5.314;2023-05-13T02:58:42;13.30;86.00
66375;DHT22;53173;52.176;5.314;2023-05-13T03:01:09;13.20;86.00
66375;DHT22;53173;52.176;5.314;2023-05-13T03:03:36;13.40;87.00
66375;DHT22;53173;52.176;5.314;2023-05-13T03:06:10;13.00;85.70
66375;DHT22;53173;52.176;5.314;2023-05-13T03:08:37;12.90;86.00
66375;DHT22;53173;52.176;5.314;2023-05-13T03:11:04;13.40;86.70
66375;DHT22;53173;52.176;5.314;2023-05-13T03:13:31;12.80;86.70
66375;DHT22;53173;52.176;5.314;2023-05-13T03:16:04;12.80;86.70
66375;DHT22;53173;52.176;5.314;2023-05-13T03:18:30;12.80;86.50
66375;DHT22;53173;52.176;5.314;2023-05-13T03:20:58;12.80;86.20
66375;DHT22;53173;52.176;5.314;2023-05-13T03:23:26;12.80;86.10
66375;DHT22;53173;52.176;5.314;2023-05-13T03:25:56;12.80;86.20
66375;DHT22;53173;52.176;5.314;2023-05-13T03:28:23;12.70;86.30
66375;DHT22;53173;52.176;5.314;2023-05-13T03:30:50;12.70;86.70
66375;DHT22;53173;52.176;5.314;2023-05-13T03:33:18;13.00;87.00
66375;DHT22;53173;52.176;5.314;2023-05-13T03:35:45;12.60;87.00
66375;DHT22;53173;52.176;5.314;2023-05-13T03:38:14;12.60;87.20
66375;DHT22;53173;52.176;5.314;2023-05-13T03:40:45;12.60;88.50
66375;DHT22;53173;52.176;5.314;2023-05-13T03:43:13;12.70;87.80
66375;DHT22;53173;52.176;5.314;2023-05-13T03:45:43;12.70;88.00
66375;DHT22;53173;52.176;5.314;2023-05-13T03:48:16;12.70;88.00
66375;DHT22;53173;52.176;5.314;2023-05-13T03:50:43;12.70;87.80
66375;DHT22;53173;52.176;5.314;2023-05-13T03:53:12;12.70;87.50
66375;DHT22;53173;52.176;5.314;2023-05-13T03:55:41;12.60;87.40
66375;DHT22;53173;52.176;5.314;2023-05-13T03:58:14;12.70;87.50
66375;DHT22;53173;52.176;5.314;2023-05-13T04:00:42;12.60;87.50
66375;DHT22;53173;52.176;5.314;2023-05-13T04:03:13;12.70;87.70
66375;DHT22;53173;52.176;5.314;2023-05-13T04:05:41;12.70;87.80
66375;DHT22;53173;52.176;5.314;2023-05-13T04:08:08;12.40;87.90
66375;DHT22;53173;52.176;5.314;2023-05-13T04:10:36;12.40;88.10
66375;DHT22;53173;52.176;5.314;2023-05-13T04:13:04;12.50;89.10
66375;DHT22;53173;52.176;5.314;2023-05-13T04:15:36;12.70;89.90
66375;DHT22;53173;52.176;5.314;2023-05-13T04:18:04;12.50;90.10
66375;DHT22;53173;52.176;5.314;2023-05-13T04:20:33;12.50;90.20
66375;DHT22;53173;52.176;5.314;2023-05-13T04:23:00;12.50;90.40
66375;DHT22;53173;52.176;5.314;2023-05-13T04:25:28;12.60;90.50
66375;DHT22;53173;52.176;5.314;2023-05-13T04:27:55;12.50;90.50
66375;DHT22;53173;52.176;5.314;2023-05-13T04:30:33;13.20;90.80
66375;DHT22;53173;52.176;5.314;2023-05-13T04:33:00;12.60;90.80
66375;DHT22;53173;52.176;5.314;2023-05-13T04:38:59;12.60;91.20
66375;DHT22;53173;52.176;5.314;2023-05-13T04:41:26;12.90;91.30
66375;DHT22;53173;52.176;5.314;2023-05-13T04:43:53;12.70;91.30
66375;DHT22;53173;52.176;5.314;2023-05-13T04:46:20;12.70;91.40
66375;DHT22;53173;52.176;5.314;2023-05-13T04:51:18;12.60;91.30
66375;DHT22;53173;52.176;5.314;2023-05-13T04:56:12;12.70;91.50
66375;DHT22;53173;52.176;5.314;2023-05-13T04:58:39;12.70;91.90
66375;DHT22;53173;52.176;5.314;2023-05-13T05:01:07;13.00;92.20
66375;DHT22;53173;52.176;5.314;2023-05-13T05:03:34;13.10;92.50
66375;DHT22;53173;52.176;5.314;2023-05-13T05:06:06;13.00;93.20
66375;DHT22;53173;52.176;5.314;2023-05-13T05:08:33;12.60;92.90
66375;DHT22;53173;52.176;5.314;2023-05-13T05:11:00;12.70;93.00
66375;DHT22;53173;52.176;5.314;2023-05-13T05:13:29;12.80;93.20
66375;DHT22;53173;52.176;5.314;2023-05-13T05:16:01;12.80;93.60
66375;DHT22;53173;52.176;5.314;2023-05-13T05:18:29;12.80;93.20
66375;DHT22;53173;52.176;5.314;2023-05-13T05:20:56;12.90;93.40
66375;DHT22;53173;52.176;5.314;2023-05-13T05:23:27;12.90;93.60
66375;DHT22;53173;52.176;5.314;2023-05-13T05:26:00;12.90;93.90
66375;DHT22;53173;52.176;5.314;2023-05-13T05:28:40;12.80;94.10
66375;DHT22;53173;52.176;5.314;2023-05-13T05:31:08;13.00;94.10
66375;DHT22;53173;52.176;5.314;2023-05-13T05:33:35;13.00;94.60
66375;DHT22;53173;52.176;5.314;2023-05-13T05:36:24;13.00;94.80
66375;DHT22;53173;52.176;5.314;2023-05-13T05:38:51;13.00;94.90
66375;DHT22;53173;52.176;5.314;2023-05-13T05:41:19;13.00;94.80
66375;DHT22;53173;52.176;5.314;2023-05-13T05:43:46;13.20;94.80
66375;DHT22;53173;52.176;5.314;2023-05-13T05:46:13;13.30;94.90
66375;DHT22;53173;52.176;5.314;2023-05-13T05:48:40;13.60;95.20
66375;DHT22;53173;52.176;5.314;2023-05-13T05:51:07;13.20;95.30
66375;DHT22;53173;52.176;5.314;2023-05-13T05:53:35;13.30;95.30
66375;DHT22;53173;52.176;5.314;2023-05-13T05:56:37;13.30;95.40
66375;DHT22;53173;52.176;5.314;2023-05-13T05:59:04;13.40;95.30
66375;DHT22;53173;52.176;5.314;2023-05-13T06:01:31;13.70;95.30
66375;DHT22;53173;52.176;5.314;2023-05-13T06:04:00;13.50;95.30
66375;DHT22;53173;52.176;5.314;2023-05-13T06:06:28;13.50;95.10
66375;DHT22;53173;52.176;5.314;2023-05-13T06:08:56;13.50;95.20
66375;DHT22;53173;52.176;5.314;2023-05-13T06:11:23;13.60;95.40
66375;DHT22;53173;52.176;5.314;2023-05-13T06:13:49;13.60;95.40
66375;DHT22;53173;52.176;5.314;2023-05-13T06:16:17;13.60;95.50
66375;DHT22;53173;52.176;5.314;2023-05-13T06:18:44;13.80;95.50
66375;DHT22;53173;52.176;5.314;2023-05-13T06:21:11;14.20;95.50
66375;DHT22;53173;52.176;5.314;2023-05-13T06:23:38;14.10;95.40
66375;DHT22;53173;52.176;5.314;2023-05-13T06:29:28;14.00;95.10
66375;DHT22;53173;52.176;5.314;2023-05-13T06:31:55;14.10;95.00
66375;DHT22;53173;52.176;5.314;2023-05-13T06:34:22;14.90;95.10
66375;DHT22;53173;52.176;5.314;2023-05-13T06:36:49;14.10;94.80
66375;DHT22;53173;52.176;5.314;2023-05-13T06:39:17;14.30;94.70
66375;DHT22;53173;52.176;5.314;2023-05-13T06:41:44;14.50;94.70
66375;DHT22;53173;52.176;5.314;2023-05-13T06:44:14;14.30;94.60
66375;DHT22;53173;52.176;5.314;2023-05-13T06:46:44;14.70;94.60
66375;DHT22;53173;52.176;5.314;2023-05-13T06:49:12;14.60;94.50
66375;DHT22;53173;52.176;5.314;2023-05-13T06:51:38;14.70;94.90
66375;DHT22;53173;52.176;5.314;2023-05-13T06:54:05;14.80;94.40
66375;DHT22;53173;52.176;5.314;2023-05-13T06:56:33;15.40;94.30
66375;DHT22;53173;52.176;5.314;2023-05-13T06:59:00;15.40;94.10
66375;DHT22;53173;52.176;5.314;2023-05-13T07:01:27;14.90;93.90
66375;DHT22;53173;52.176;5.314;2023-05-13T07:03:54;14.90;93.80
66375;DHT22;53173;52.176;5.314;2023-05-13T07:06:21;14.90;93.70
66375;DHT22;53173;52.176;5.314;2023-05-13T07:08:48;14.90;93.60
66375;DHT22;53173;52.176;5.314;2023-05-13T07:11:15;15.00;93.70
66375;DHT22;53173;52.176;5.314;2023-05-13T07:13:42;15.00;93.60
66375;DHT22;53173;52.176;5.314;2023-05-13T07:16:10;15.00;93.50
66375;DHT22;53173;52.176;5.314;2023-05-13T07:18:37;15.10;93.50
66375;DHT22;53173;52.176;5.314;2023-05-13T07:21:04;15.30;93.20
66375;DHT22;53173;52.176;5.314;2023-05-13T07:23:32;15.20;93.00
66375;DHT22;53173;52.176;5.314;2023-05-13T07:26:04;15.30;93.00
66375;DHT22;53173;52.176;5.314;2023-05-13T07:28:31;15.10;92.90
66375;DHT22;53173;52.176;5.314;2023-05-13T07:30:58;15.10;93.00
66375;DHT22;53173;52.176;5.314;2023-05-13T07:33:25;15.20;93.00
66375;DHT22;53173;52.176;5.314;2023-05-13T07:35:52;15.30;93.10
66375;DHT22;53173;52.176;5.314;2023-05-13T07:38:19;15.10;93.00
66375;DHT22;53173;52.176;5.314;2023-05-13T07:40:46;15.30;93.10
66375;DHT22;53173;52.176;5.314;2023-05-13T07:43:13;15.30;93.00
66375;DHT22;53173;52.176;5.314;2023-05-13T07:45:40;15.40;93.00
66375;DHT22;53173;52.176;5.314;2023-05-13T07:48:08;15.40;92.70
66375;DHT22;53173;52.176;5.314;2023-05-13T07:50:35;15.60;92.70
66375;DHT22;53173;52.176;5.314;2023-05-13T07:53:02;15.60;92.50
66375;DHT22;53173;52.176;5.314;2023-05-13T07:55:35;15.70;92.60
66375;DHT22;53173;52.176;5.314;2023-05-13T07:58:01;15.70;92.60
66375;DHT22;53173;52.176;5.314;2023-05-13T08:00:28;15.80;92.90
66375;DHT22;53173;52.176;5.314;2023-05-13T08:02:55;15.90;92.90
66375;DHT22;53173;52.176;5.314;2023-05-13T08:05:22;16.00;92.90
66375;DHT22;53173;52.176;5.314;2023-05-13T08:07:49;16.10;92.70
66375;DHT22;53173;52.176;5.314;2023-05-13T08:10:16;16.10;92.50
66375;DHT22;53173;52.176;5.314;2023-05-13T08:12:43;16.20;92.60
66375;DHT22;53173;52.176;5.314;2023-05-13T08:18:34;16.30;92.10
66375;DHT22;53173;52.176;5.314;2023-05-13T08:21:01;16.30;92.10
66375;DHT22;53173;52.176;5.314;2023-05-13T08:23:27;16.30;91.90
66375;DHT22;53173;52.176;5.314;2023-05-13T08:26:45;16.40;92.00
66375;DHT22;53173;52.176;5.314;2023-05-13T08:29:12;16.40;91.90
66375;DHT22;53173;52.176;5.314;2023-05-13T08:31:41;16.60;91.80
66375;DHT22;53173;52.176;5.314;2023-05-13T08:34:08;16.50;91.60
66375;DHT22;53173;52.176;5.314;2023-05-13T08:36:35;16.60;91.50
66375;DHT22;53173;52.176;5.314;2023-05-13T08:39:02;16.80;91.60
66375;DHT22;53173;52.176;5.314;2023-05-13T08:41:29;16.70;91.40
66375;DHT22;53173;52.176;5.314;2023-05-13T08:43:57;16.90;91.20
66375;DHT22;53173;52.176;5.314;2023-05-13T08:46:26;16.90;91.00
66375;DHT22;53173;52.176;5.314;2023-05-13T08:48:55;17.00;91.00
66375;DHT22;53173;52.176;5.314;2023-05-13T08:51:23;17.10;91.10
66375;DHT22;53173;52.176;5.314;2023-05-13T08:53:50;17.10;90.80
66375;DHT22;53173;52.176;5.314;2023-05-13T08:56:18;17.20;90.80
66375;DHT22;53173;52.176;5.314;2023-05-13T08:58:45;17.20;90.70
66375;DHT22;53173;52.176;5.314;2023-05-13T09:01:12;17.30;90.40
66375;DHT22;53173;52.176;5.314;2023-05-13T09:03:56;17.40;90.30
66375;DHT22;53173;52.176;5.314;2023-05-13T09:06:24;17.40;90.40
66375;DHT22;53173;52.176;5.314;2023-05-13T09:08:51;17.50;90.40
66375;DHT22;53173;52.176;5.314;2023-05-13T09:11:18;17.70;90.40
66375;DHT22;53173;52.176;5.314;2023-05-13T09:13:55;17.60;90.20
66375;DHT22;53173;52.176;5.314;2023-05-13T09:19:53;17.80;90.00
66375;DHT22;53173;52.176;5.314;2023-05-13T09:22:20;17.80;89.80
66375;DHT22;53173;52.176;5.314;2023-05-13T09:24:54;17.90;90.00
66375;DHT22;53173;52.176;5.314;2023-05-13T09:27:35;18.10;90.00
66375;DHT22;53173;52.176;5.314;2023-05-13T09:30:04;18.20;88.40
66375;DHT22;53173;52.176;5.314;2023-05-13T09:32:31;18.20;87.90
66375;DHT22;53173;52.176;5.314;2023-05-13T09:35:14;18.30;88.40
66375;DHT22;53173;52.176;5.314;2023-05-13T09:37:46;18.40;88.70
66375;DHT22;53173;52.176;5.314;2023-05-13T09:40:15;18.40;88.40
66375;DHT22;53173;52.176;5.314;2023-05-13T09:42:45;18.40;88.10
66375;DHT22;53173;52.176;5.314;2023-05-13T09:45:14;18.60;87.20
66375;DHT22;53173;52.176;5.314;2023-05-13T09:47:42;18.60;87.10
66375;DHT22;53173;52.176;5.314;2023-05-13T09:50:10;18.60;87.00
66375;DHT22;53173;52.176;5.314;2023-05-13T09:52:38;18.90;86.70
66375;DHT22;53173;52.176;5.314;2023-05-13T09:55:10;18.70;85.70
66375;DHT22;53173;52.176;5.314;2023-05-13T09:57:38;18.90;86.60
66375;DHT22;53173;52.176;5.314;2023-05-13T10:00:06;18.90;86.20
66375;DHT22;53173;52.176;5.314;2023-05-13T10:02:43;18.90;85.60
66375;DHT22;53173;52.176;5.314;2023-05-13T10:05:17;19.00;85.40
66375;DHT22;53173;52.176;5.314;2023-05-13T10:07:43;19.00;84.60
66375;DHT22;53173;52.176;5.314;2023-05-13T10:10:11;19.10;84.40
66375;DHT22;53173;52.176;5.314;2023-05-13T10:12:38;19.10;84.30
66375;DHT22;53173;52.176;5.314;2023-05-13T10:18:37;19.30;83.60
66375;DHT22;53173;52.176;5.314;2023-05-13T10:21:04;19.50;83.00
66375;DHT22;53173;52.176;5.314;2023-05-13T10:23:32;19.50;82.20
66375;DHT22;53173;52.176;5.314;2023-05-13T10:26:05;19.50;82.20
66375;DHT22;53173;52.176;5.314;2023-05-13T10:28:33;19.60;82.80
66375;DHT22;53173;52.176;5.314;2023-05-13T10:30:59;19.70;82.90
66375;DHT22;53173;52.176;5.314;2023-05-13T10:33:26;19.80;82.80
66375;DHT22;53173;52.176;5.314;2023-05-13T10:39:11;19.80;81.30
66375;DHT22;53173;52.176;5.314;2023-05-13T10:44:53;19.90;80.30
66375;DHT22;53173;52.176;5.314;2023-05-13T10:47:20;20.00;80.90
66375;DHT22;53173;52.176;5.314;2023-05-13T10:49:50;20.10;80.80
66375;DHT22;53173;52.176;5.314;2023-05-13T10:52:18;20.20;80.80
66375;DHT22;53173;52.176;5.314;2023-05-13T10:55:14;20.30;81.00
66375;DHT22;53173;52.176;5.314;2023-05-13T10:57:41;20.40;81.10
66375;DHT22;53173;52.176;5.314;2023-05-13T11:00:30;20.30;80.00
66375;DHT22;53173;52.176;5.314;2023-05-13T11:03:28;20.40;79.00
66375;DHT22;53173;52.176;5.314;2023-05-13T11:06:18;20.50;78.50
66375;DHT22;53173;52.176;5.314;2023-05-13T11:08:51;20.70;79.20
66375;DHT22;53173;52.176;5.314;2023-05-13T11:11:22;20.70;78.30
66375;DHT22;53173;52.176;5.314;2023-05-13T11:13:54;20.80;78.50
66375;DHT22;53173;52.176;5.314;2023-05-13T11:16:28;21.00;78.60
66375;DHT22;53173;52.176;5.314;2023-05-13T11:18:55;21.00;77.50
66375;DHT22;53173;52.176;5.314;2023-05-13T11:21:35;21.00;77.10
66375;DHT22;53173;52.176;5.314;2023-05-13T11:24:06;21.00;76.90
66375;DHT22;53173;52.176;5.314;2023-05-13T11:26:49;21.00;76.80
66375;DHT22;53173;52.176;5.314;2023-05-13T11:29:30;21.10;77.70
66375;DHT22;53173;52.176;5.314;2023-05-13T11:31:58;21.20;77.40
66375;DHT22;53173;52.176;5.314;2023-05-13T11:34:27;21.10;77.00
66375;DHT22;53173;52.176;5.314;2023-05-13T11:37:07;21.20;77.50
66375;DHT22;53173;52.176;5.314;2023-05-13T11:39:36;21.30;77.40
66375;DHT22;53173;52.176;5.314;2023-05-13T11:42:08;21.40;78.30
66375;DHT22;53173;52.176;5.314;2023-05-13T11:44:45;21.50;78.40
66375;DHT22;53173;52.176;5.314;2023-05-13T11:47:24;21.60;78.50
66375;DHT22;53173;52.176;5.314;2023-05-13T11:49:52;21.70;78.20
66375;DHT22;53173;52.176;5.314;2023-05-13T11:52:19;21.70;78.10
66375;DHT22;53173;52.176;5.314;2023-05-13T11:55:23;21.90;78.30
66375;DHT22;53173;52.176;5.314;2023-05-13T11:57:50;21.80;75.20
66375;DHT22;53173;52.176;5.314;2023-05-13T12:00:17;21.80;75.90
66375;DHT22;53173;52.176;5.314;2023-05-13T12:02:49;21.90;76.20
66375;DHT22;53173;52.176;5.314;2023-05-13T12:05:16;21.90;75.80
66375;DHT22;53173;52.176;5.314;2023-05-13T12:07:44;21.90;76.60
66375;DHT22;53173;52.176;5.314;2023-05-13T12:10:11;22.00;76.60
66375;DHT22;53173;52.176;5.314;2023-05-13T12:12:43;22.10;76.50
66375;DHT22;53173;52.176;5.314;2023-05-13T12:15:17;22.20;76.20
66375;DHT22;53173;52.176;5.314;2023-05-13T12:17:45;22.10;74.00
66375;DHT22;53173;52.176;5.314;2023-05-13T12:20:20;22.20;74.50
66375;DHT22;53173;52.176;5.314;2023-05-13T12:29:41;22.40;72.60
66375;DHT22;53173;52.176;5.314;2023-05-13T12:32:08;22.40;72.50
66375;DHT22;53173;52.176;5.314;2023-05-13T12:34:50;22.40;71.30
66375;DHT22;53173;52.176;5.314;2023-05-13T12:37:17;22.50;70.30
66375;DHT22;53173;52.176;5.314;2023-05-13T12:39:44;22.60;71.10
66375;DHT22;53173;52.176;5.314;2023-05-13T12:42:15;22.60;71.30
66375;DHT22;53173;52.176;5.314;2023-05-13T12:44:48;22.70;70.70
66375;DHT22;53173;52.176;5.314;2023-05-13T12:47:15;22.80;70.30
66375;DHT22;53173;52.176;5.314;2023-05-13T12:52:19;22.90;70.50
66375;DHT22;53173;52.176;5.314;2023-05-13T12:54:52;22.90;70.70
66375;DHT22;53173;52.176;5.314;2023-05-13T12:57:19;23.00;70.60
66375;DHT22;53173;52.176;5.314;2023-05-13T12:59:46;23.00;69.70
66375;DHT22;53173;52.176;5.314;2023-05-13T13:02:13;23.00;69.90
66375;DHT22;53173;52.176;5.314;2023-05-13T13:04:46;23.10;68.60
66375;DHT22;53173;52.176;5.314;2023-05-13T13:07:13;23.00;70.30
66375;DHT22;53173;52.176;5.314;2023-05-13T13:09:40;23.10;70.30
66375;DHT22;53173;52.176;5.314;2023-05-13T13:12:07;23.10;69.20
66375;DHT22;53173;52.176;5.314;2023-05-13T13:15:00;23.20;67.00
66375;DHT22;53173;52.176;5.314;2023-05-13T13:17:27;23.40;65.40
66375;DHT22;53173;52.176;5.314;2023-05-13T13:19:54;23.30;65.30
66375;DHT22;53173;52.176;5.314;2023-05-13T13:22:21;23.40;63.90
66375;DHT22;53173;52.176;5.314;2023-05-13T13:24:53;23.50;63.10
66375;DHT22;53173;52.176;5.314;2023-05-13T13:27:20;23.40;63.30
66375;DHT22;53173;52.176;5.314;2023-05-13T13:29:47;23.30;63.40
66375;DHT22;53173;52.176;5.314;2023-05-13T13:32:14;23.20;65.00
66375;DHT22;53173;52.176;5.314;2023-05-13T13:34:41;23.00;64.50
66375;DHT22;53173;52.176;5.314;2023-05-13T13:37:08;22.70;64.30
66375;DHT22;53173;52.176;5.314;2023-05-13T13:39:35;22.80;65.70
66375;DHT22;53173;52.176;5.314;2023-05-13T13:42:02;22.80;66.30
66375;DHT22;53173;52.176;5.314;2023-05-13T13:44:30;22.80;66.30
66375;DHT22;53173;52.176;5.314;2023-05-13T13:46:57;22.90;64.30
66375;DHT22;53173;52.176;5.314;2023-05-13T13:49:24;22.80;64.20
66375;DHT22;53173;52.176;5.314;2023-05-13T13:51:51;22.90;65.20
66375;DHT22;53173;52.176;5.314;2023-05-13T13:54:19;23.00;66.20
66375;DHT22;53173;52.176;5.314;2023-05-13T13:56:47;23.10;65.80
66375;DHT22;53173;52.176;5.314;2023-05-13T13:59:14;23.10;64.50
66375;DHT22;53173;52.176;5.314;2023-05-13T14:01:41;23.30;63.30
66375;DHT22;53173;52.176;5.314;2023-05-13T14:04:17;23.40;64.70
66375;DHT22;53173;52.176;5.314;2023-05-13T14:06:49;23.40;62.30
66375;DHT22;53173;52.176;5.314;2023-05-13T14:09:17;23.50;61.40
66375;DHT22;53173;52.176;5.314;2023-05-13T14:11:44;23.60;62.00
66375;DHT22;53173;52.176;5.314;2023-05-13T14:14:11;23.60;60.70
66375;DHT22;53173;52.176;5.314;2023-05-13T14:16:38;23.60;60.30
66375;DHT22;53173;52.176;5.314;2023-05-13T14:19:05;23.60;60.10
66375;DHT22;53173;52.176;5.314;2023-05-13T14:21:32;23.60;60.10
66375;DHT22;53173;52.176;5.314;2023-05-13T14:23:59;23.70;61.70
66375;DHT22;53173;52.176;5.314;2023-05-13T14:26:26;23.80;63.60
66375;DHT22;53173;52.176;5.314;2023-05-13T14:28:53;23.70;61.30
66375;DHT22;53173;52.176;5.314;2023-05-13T14:31:20;23.70;59.60
66375;DHT22;53173;52.176;5.314;2023-05-13T14:33:47;23.80;58.10
66375;DHT22;53173;52.176;5.314;2023-05-13T14:36:39;23.80;59.60
66375;DHT22;53173;52.176;5.314;2023-05-13T14:39:06;23.80;59.70
66375;DHT22;53173;52.176;5.314;2023-05-13T14:41:36;23.90;61.40
66375;DHT22;53173;52.176;5.314;2023-05-13T14:44:03;24.00;61.60
66375;DHT22;53173;52.176;5.314;2023-05-13T14:46:30;24.00;59.80
66375;DHT22;53173;52.176;5.314;2023-05-13T14:48:59;23.90;59.00
66375;DHT22;53173;52.176;5.314;2023-05-13T14:51:26;24.10;60.20
66375;DHT22;53173;52.176;5.314;2023-05-13T14:53:53;24.10;59.60
66375;DHT22;53173;52.176;5.314;2023-05-13T14:56:26;24.10;59.40
66375;DHT22;53173;52.176;5.314;2023-05-13T14:58:53;23.70;58.70
66375;DHT22;53173;52.176;5.314;2023-05-13T15:01:20;23.70;60.50
66375;DHT22;53173;52.176;5.314;2023-05-13T15:03:47;23.60;60.90
66375;DHT22;53173;52.176;5.314;2023-05-13T15:06:39;23.50;59.40
66375;DHT22;53173;52.176;5.314;2023-05-13T15:09:06;23.60;60.10
66375;DHT22;53173;52.176;5.314;2023-05-13T15:11:33;23.60;60.60
66375;DHT22;53173;52.176;5.314;2023-05-13T15:14:01;23.70;60.20
66375;DHT22;53173;52.176;5.314;2023-05-13T15:16:28;23.70;60.60
66375;DHT22;53173;52.176;5.314;2023-05-13T15:18:55;23.80;59.90
66375;DHT22;53173;52.176;5.314;2023-05-13T15:21:22;23.50;58.30
66375;DHT22;53173;52.176;5.314;2023-05-13T15:23:49;23.50;59.20
66375;DHT22;53173;52.176;5.314;2023-05-13T15:26:21;23.60;60.70
66375;DHT22;53173;52.176;5.314;2023-05-13T15:28:48;23.60;59.60
66375;DHT22;53173;52.176;5.314;2023-05-13T15:31:15;23.50;59.10
66375;DHT22;53173;52.176;5.314;2023-05-13T15:33:41;23.60;59.80
66375;DHT22;53173;52.176;5.314;2023-05-13T15:39:28;23.60;56.30
66375;DHT22;53173;52.176;5.314;2023-05-13T15:41:55;23.60;58.50
66375;DHT22;53173;52.176;5.314;2023-05-13T15:44:22;23.50;58.90
66375;DHT22;53173;52.176;5.314;2023-05-13T15:46:49;23.50;60.00
66375;DHT22;53173;52.176;5.314;2023-05-13T15:49:16;23.40;59.90
66375;DHT22;53173;52.176;5.314;2023-05-13T15:51:43;23.50;60.70
66375;DHT22;53173;52.176;5.314;2023-05-13T15:54:10;23.40;58.90
66375;DHT22;53173;52.176;5.314;2023-05-13T15:56:37;23.30;57.90
66375;DHT22;53173;52.176;5.314;2023-05-13T15:59:03;23.30;58.00
66375;DHT22;53173;52.176;5.314;2023-05-13T16:01:31;23.40;59.30
66375;DHT22;53173;52.176;5.314;2023-05-13T16:03:58;23.40;58.20
66375;DHT22;53173;52.176;5.314;2023-05-13T16:06:25;23.20;55.40
66375;DHT22;53173;52.176;5.314;2023-05-13T16:08:52;23.20;56.90
66375;DHT22;53173;52.176;5.314;2023-05-13T16:11:22;23.10;55.80
66375;DHT22;53173;52.176;5.314;2023-05-13T16:13:49;23.30;55.40
66375;DHT22;53173;52.176;5.314;2023-05-13T16:16:36;23.00;56.20
66375;DHT22;53173;52.176;5.314;2023-05-13T16:19:03;23.00;56.00
66375;DHT22;53173;52.176;5.314;2023-05-13T16:21:30;22.90;57.00
66375;DHT22;53173;52.176;5.314;2023-05-13T16:23:57;22.90;58.50
66375;DHT22;53173;52.176;5.314;2023-05-13T16:26:24;22.80;55.50
66375;DHT22;53173;52.176;5.314;2023-05-13T16:28:51;22.60;55.40
66375;DHT22;53173;52.176;5.314;2023-05-13T16:31:18;22.60;57.30
66375;DHT22;53173;52.176;5.314;2023-05-13T16:33:45;22.50;58.70